DAL1298 SAWG-SAVC
Flight info
| Callsign | DAL1298 |
|---|---|
| Flight time | 1h 4m |
| Altitude | 31000 |
| Route | KADEB UP664 BODUN |
| Aircraft | B752/M-VGDW/C |
Departure
| Time | 2026-04-15 04:02 |
|---|---|
| Airport | Piloto Civil Norberto Fernández International Airport (SAWG) |
Arrival
| Time | 2026-04-15 05:06 |
|---|---|
| Airport | General Enrique Mosconi International Airport (SAVC) |
| Time | Latitude | Longitude | Altitude | Speed | Heading |
|---|---|---|---|---|---|
| 2026-04-15 03:43 | -51.61179 | -69.30543 | 72 ft | 0 kts | 229° |
| 2026-04-15 03:48 | -51.61177 | -69.30539 | 72 ft | 2 kts | 227° |
| 2026-04-15 03:48 | -51.61172 | -69.30528 | 72 ft | 2 kts | 230° |
| 2026-04-15 03:48 | -51.61159 | -69.30512 | 72 ft | 3 kts | 192° |
| 2026-04-15 03:49 | -51.61145 | -69.30518 | 72 ft | 3 kts | 153° |
| 2026-04-15 03:49 | -51.61127 | -69.30533 | 72 ft | 3 kts | 149° |
| 2026-04-15 03:49 | -51.61112 | -69.30552 | 72 ft | 3 kts | 138° |
| 2026-04-15 03:49 | -51.61096 | -69.30573 | 72 ft | 3 kts | 139° |
| 2026-04-15 03:50 | -51.61081 | -69.30594 | 72 ft | 3 kts | 140° |
| 2026-04-15 03:50 | -51.61066 | -69.30615 | 72 ft | 3 kts | 140° |
| 2026-04-15 03:50 | -51.61050 | -69.30634 | 72 ft | 3 kts | 147° |
| 2026-04-15 03:50 | -51.61032 | -69.30649 | 72 ft | 3 kts | 160° |
| 2026-04-15 03:51 | -51.61013 | -69.30655 | 72 ft | 3 kts | 178° |
| 2026-04-15 03:51 | -51.60994 | -69.30651 | 72 ft | 3 kts | 200° |
| 2026-04-15 03:51 | -51.60979 | -69.30635 | 72 ft | 3 kts | 232° |
| 2026-04-15 03:51 | -51.60974 | -69.30614 | 72 ft | 1 kts | 264° |
| 2026-04-15 03:52 | -51.60973 | -69.30605 | 72 ft | 0 kts | 265° |
| 2026-04-15 03:55 | -51.60919 | -69.30665 | 72 ft | 10 kts | 47° |
| 2026-04-15 03:55 | -51.60920 | -69.30617 | 72 ft | 0 kts | 131° |
| 2026-04-15 03:55 | -51.60933 | -69.30595 | 72 ft | 7 kts | 135° |
| 2026-04-15 03:55 | -51.60967 | -69.30479 | 72 ft | 17 kts | 89° |
| 2026-04-15 03:56 | -51.60956 | -69.30241 | 72 ft | 24 kts | 86° |
| 2026-04-15 03:56 | -51.60942 | -69.29969 | 72 ft | 22 kts | 85° |
| 2026-04-15 03:56 | -51.60932 | -69.29782 | 72 ft | 12 kts | 86° |
| 2026-04-15 03:56 | -51.60928 | -69.29683 | 72 ft | 9 kts | 85° |
| 2026-04-15 03:57 | -51.60921 | -69.29551 | 72 ft | 16 kts | 85° |
| 2026-04-15 03:57 | -51.60911 | -69.29338 | 72 ft | 18 kts | 86° |
| 2026-04-15 03:57 | -51.60900 | -69.29106 | 72 ft | 23 kts | 85° |
| 2026-04-15 03:57 | -51.60888 | -69.28867 | 72 ft | 19 kts | 85° |
| 2026-04-15 03:58 | -51.60881 | -69.28748 | 72 ft | 0 kts | 77° |
| 2026-04-15 03:58 | -51.60878 | -69.28733 | 72 ft | 2 kts | 65° |
| 2026-04-15 03:58 | -51.60861 | -69.28708 | 72 ft | 4 kts | 25° |
| 2026-04-15 03:59 | -51.60826 | -69.28706 | 72 ft | 6 kts | 354° |
| 2026-04-15 03:59 | -51.60780 | -69.28731 | 72 ft | 8 kts | 313° |
| 2026-04-15 03:59 | -51.60767 | -69.28822 | 72 ft | 8 kts | 268° |
| 2026-04-15 03:59 | -51.60768 | -69.28833 | 72 ft | 0 kts | 269° |
| 2026-04-15 04:00 | -51.60768 | -69.28848 | 72 ft | 2 kts | 268° |
| 2026-04-15 04:01 | -51.60774 | -69.28991 | 72 ft | 38 kts | 266° |
| 2026-04-15 04:01 | -51.60807 | -69.29712 | 72 ft | 91 kts | 265° |
| 2026-04-15 04:01 | -51.60870 | -69.30986 | 73 ft | 135 kts | 266° |
| 2026-04-15 04:01 | -51.60949 | -69.32664 | 164 ft | 158 kts | 265° |
| 2026-04-15 04:02 | -51.61036 | -69.34463 | 501 ft | 168 kts | 271° |
| 2026-04-15 04:02 | -51.60626 | -69.36263 | 846 ft | 179 kts | 307° |
| 2026-04-15 04:02 | -51.59554 | -69.37335 | 1198 ft | 193 kts | 345° |
| 2026-04-15 04:02 | -51.58180 | -69.37177 | 1622 ft | 206 kts | 20° |
| 2026-04-15 04:03 | -51.56924 | -69.36016 | 2183 ft | 213 kts | 34° |
| 2026-04-15 04:03 | -51.55688 | -69.34641 | 2638 ft | 220 kts | 35° |
| 2026-04-15 04:03 | -51.54436 | -69.33218 | 3132 ft | 223 kts | 35° |
| 2026-04-15 04:03 | -51.53146 | -69.31761 | 3638 ft | 229 kts | 33° |
| 2026-04-15 04:04 | -51.51656 | -69.30859 | 4131 ft | 230 kts | 11° |
| 2026-04-15 04:04 | -51.50058 | -69.30544 | 4649 ft | 232 kts | 5° |
| 2026-04-15 04:04 | -51.48445 | -69.30235 | 5147 ft | 234 kts | 11° |
| 2026-04-15 04:04 | -51.46843 | -69.29726 | 5652 ft | 236 kts | 10° |
| 2026-04-15 04:05 | -51.45182 | -69.29383 | 6170 ft | 247 kts | 5° |
| 2026-04-15 04:05 | -51.43451 | -69.29160 | 6677 ft | 257 kts | 4° |
| 2026-04-15 04:05 | -51.41658 | -69.28927 | 7182 ft | 260 kts | 5° |
| 2026-04-15 04:05 | -51.39848 | -69.28662 | 7685 ft | 262 kts | 5° |
| 2026-04-15 04:06 | -51.38020 | -69.28382 | 8189 ft | 264 kts | 5° |
| 2026-04-15 04:06 | -51.36196 | -69.27944 | 8688 ft | 266 kts | 12° |
| 2026-04-15 04:06 | -51.34406 | -69.27154 | 9194 ft | 268 kts | 17° |
| 2026-04-15 04:06 | -51.32617 | -69.26272 | 9696 ft | 270 kts | 17° |
| 2026-04-15 04:07 | -51.30802 | -69.25433 | 10199 ft | 272 kts | 15° |
| 2026-04-15 04:07 | -51.28944 | -69.24623 | 10711 ft | 282 kts | 15° |
| 2026-04-15 04:07 | -51.27047 | -69.23805 | 11215 ft | 289 kts | 15° |
| 2026-04-15 04:07 | -51.25032 | -69.22928 | 11740 ft | 304 kts | 15° |
| 2026-04-15 04:08 | -51.22965 | -69.22022 | 12252 ft | 319 kts | 15° |
| 2026-04-15 04:08 | -51.20771 | -69.21060 | 12769 ft | 334 kts | 15° |
| 2026-04-15 04:08 | -51.18499 | -69.20067 | 13278 ft | 341 kts | 15° |
| 2026-04-15 04:08 | -51.16199 | -69.19063 | 13781 ft | 344 kts | 15° |
| 2026-04-15 04:09 | -51.13876 | -69.18051 | 14284 ft | 347 kts | 15° |
| 2026-04-15 04:09 | -51.11532 | -69.17030 | 14788 ft | 349 kts | 15° |
| 2026-04-15 04:09 | -51.09179 | -69.16006 | 15289 ft | 352 kts | 15° |
| 2026-04-15 04:09 | -51.06840 | -69.14990 | 15784 ft | 355 kts | 15° |
| 2026-04-15 04:10 | -51.04448 | -69.13951 | 16287 ft | 357 kts | 15° |
| 2026-04-15 04:10 | -51.02040 | -69.12907 | 16790 ft | 360 kts | 15° |
| 2026-04-15 04:10 | -50.99612 | -69.11855 | 17292 ft | 363 kts | 15° |
| 2026-04-15 04:10 | -50.97166 | -69.10797 | 17794 ft | 365 kts | 15° |
| 2026-04-15 04:11 | -50.94700 | -69.09731 | 18297 ft | 368 kts | 15° |
| 2026-04-15 04:11 | -50.92217 | -69.08659 | 18800 ft | 371 kts | 15° |
| 2026-04-15 04:11 | -50.89715 | -69.07580 | 19302 ft | 374 kts | 15° |
| 2026-04-15 04:11 | -50.87195 | -69.06494 | 19804 ft | 377 kts | 15° |
| 2026-04-15 04:12 | -50.84663 | -69.05404 | 20305 ft | 379 kts | 15° |
| 2026-04-15 04:12 | -50.82099 | -69.04302 | 20808 ft | 382 kts | 15° |
| 2026-04-15 04:12 | -50.79523 | -69.03197 | 21310 ft | 385 kts | 15° |
| 2026-04-15 04:12 | -50.76959 | -69.02097 | 21806 ft | 388 kts | 15° |
| 2026-04-15 04:13 | -50.74336 | -69.00973 | 22310 ft | 391 kts | 15° |
| 2026-04-15 04:13 | -50.71694 | -68.99854 | 22812 ft | 394 kts | 14° |
| 2026-04-15 04:13 | -50.69014 | -68.98815 | 23315 ft | 397 kts | 13° |
| 2026-04-15 04:13 | -50.66308 | -68.97840 | 23818 ft | 400 kts | 13° |
| 2026-04-15 04:14 | -50.63572 | -68.96875 | 24320 ft | 403 kts | 12° |
| 2026-04-15 04:14 | -50.60825 | -68.95901 | 24822 ft | 406 kts | 13° |
| 2026-04-15 04:14 | -50.58099 | -68.94923 | 25317 ft | 408 kts | 13° |
| 2026-04-15 04:14 | -50.55326 | -68.93921 | 25818 ft | 410 kts | 13° |
| 2026-04-15 04:15 | -50.52537 | -68.92911 | 26319 ft | 411 kts | 13° |
| 2026-04-15 04:15 | -50.49738 | -68.91900 | 26820 ft | 412 kts | 13° |
| 2026-04-15 04:15 | -50.46935 | -68.90889 | 27321 ft | 413 kts | 13° |
| 2026-04-15 04:15 | -50.44139 | -68.89882 | 27819 ft | 413 kts | 13° |
| 2026-04-15 04:16 | -50.41370 | -68.88888 | 28310 ft | 413 kts | 13° |
| 2026-04-15 04:16 | -50.38561 | -68.87880 | 28715 ft | 415 kts | 13° |
| 2026-04-15 04:16 | -50.35740 | -68.86869 | 29093 ft | 417 kts | 13° |
| 2026-04-15 04:16 | -50.32900 | -68.85852 | 29470 ft | 419 kts | 13° |
| 2026-04-15 04:17 | -50.30045 | -68.84831 | 29847 ft | 421 kts | 13° |
| 2026-04-15 04:17 | -50.27178 | -68.83807 | 30223 ft | 423 kts | 13° |
| 2026-04-15 04:17 | -50.24302 | -68.82782 | 30597 ft | 424 kts | 13° |
| 2026-04-15 04:17 | -50.21416 | -68.81754 | 30864 ft | 429 kts | 13° |
| 2026-04-15 04:18 | -50.18469 | -68.80705 | 30970 ft | 434 kts | 13° |
| 2026-04-15 04:18 | -50.12508 | -68.78588 | 31011 ft | 450 kts | 13° |
| 2026-04-15 04:19 | -50.06286 | -68.76385 | 31011 ft | 465 kts | 13° |
| 2026-04-15 04:19 | -49.99908 | -68.74132 | 31005 ft | 469 kts | 13° |
| 2026-04-15 04:20 | -49.93534 | -68.71886 | 31003 ft | 469 kts | 13° |
| 2026-04-15 04:20 | -49.87206 | -68.69663 | 31003 ft | 469 kts | 13° |
| 2026-04-15 04:21 | -49.80833 | -68.67430 | 31003 ft | 469 kts | 13° |
| 2026-04-15 04:21 | -49.74468 | -68.65206 | 31003 ft | 469 kts | 13° |
| 2026-04-15 04:22 | -49.68089 | -68.62983 | 31003 ft | 469 kts | 13° |
| 2026-04-15 04:22 | -49.61707 | -68.60765 | 31003 ft | 469 kts | 13° |
| 2026-04-15 04:23 | -49.55370 | -68.58568 | 31003 ft | 469 kts | 13° |
| 2026-04-15 04:23 | -49.49001 | -68.56366 | 31003 ft | 469 kts | 13° |
| 2026-04-15 04:24 | -49.42626 | -68.54168 | 31003 ft | 469 kts | 12° |
| 2026-04-15 04:24 | -49.36247 | -68.51975 | 31003 ft | 469 kts | 12° |
| 2026-04-15 04:25 | -49.29861 | -68.49785 | 31003 ft | 469 kts | 12° |
| 2026-04-15 04:25 | -49.23487 | -68.47605 | 31003 ft | 469 kts | 12° |
| 2026-04-15 04:26 | -49.17109 | -68.45430 | 31003 ft | 469 kts | 12° |
| 2026-04-15 04:26 | -49.10758 | -68.43271 | 31003 ft | 469 kts | 12° |
| 2026-04-15 04:27 | -49.04385 | -68.41110 | 31003 ft | 469 kts | 12° |
| 2026-04-15 04:27 | -48.98004 | -68.38952 | 31003 ft | 469 kts | 12° |
| 2026-04-15 04:28 | -48.91624 | -68.36801 | 31003 ft | 469 kts | 12° |
| 2026-04-15 04:28 | -48.85242 | -68.34653 | 31003 ft | 469 kts | 12° |
| 2026-04-15 04:29 | -48.78903 | -68.32526 | 31003 ft | 469 kts | 12° |
| 2026-04-15 04:29 | -48.72528 | -68.30393 | 31003 ft | 469 kts | 12° |
| 2026-04-15 04:30 | -48.66150 | -68.28264 | 31003 ft | 469 kts | 12° |
| 2026-04-15 04:30 | -48.59761 | -68.26136 | 31003 ft | 469 kts | 12° |
| 2026-04-15 04:31 | -48.53379 | -68.24017 | 31003 ft | 469 kts | 12° |
| 2026-04-15 04:31 | -48.47004 | -68.21905 | 31003 ft | 469 kts | 12° |
| 2026-04-15 04:32 | -48.40618 | -68.19795 | 31003 ft | 469 kts | 12° |
| 2026-04-15 04:32 | -48.34236 | -68.17691 | 31003 ft | 469 kts | 12° |
| 2026-04-15 04:33 | -48.27902 | -68.15609 | 31003 ft | 469 kts | 12° |
| 2026-04-15 04:33 | -48.21521 | -68.13516 | 31003 ft | 469 kts | 12° |
| 2026-04-15 04:34 | -48.15132 | -68.11426 | 31003 ft | 469 kts | 12° |
| 2026-04-15 04:34 | -48.08750 | -68.09344 | 31003 ft | 469 kts | 12° |
| 2026-04-15 04:35 | -48.03433 | -68.07613 | 31003 ft | 469 kts | 12° |
| 2026-04-15 04:35 | -47.96010 | -68.05202 | 31003 ft | 469 kts | 12° |
| 2026-04-15 04:36 | -47.90693 | -68.03480 | 31003 ft | 469 kts | 12° |
| 2026-04-15 04:36 | -47.84305 | -68.01415 | 31003 ft | 469 kts | 12° |
| 2026-04-15 04:37 | -47.77917 | -67.99356 | 31003 ft | 469 kts | 12° |
| 2026-04-15 04:37 | -47.71527 | -67.97300 | 31003 ft | 469 kts | 12° |
| 2026-04-15 04:38 | -47.65154 | -67.95256 | 30464 ft | 467 kts | 12° |
| 2026-04-15 04:38 | -47.61996 | -67.94244 | 29964 ft | 460 kts | 12° |
| 2026-04-15 04:38 | -47.58891 | -67.93251 | 29461 ft | 452 kts | 12° |
| 2026-04-15 04:38 | -47.55829 | -67.92273 | 28961 ft | 448 kts | 12° |
| 2026-04-15 04:39 | -47.52789 | -67.91303 | 28461 ft | 445 kts | 12° |
| 2026-04-15 04:39 | -47.50996 | -67.90731 | 28163 ft | 443 kts | 12° |
| 2026-04-15 04:39 | -47.47982 | -67.89771 | 27661 ft | 440 kts | 12° |
| 2026-04-15 04:39 | -47.45036 | -67.88834 | 27166 ft | 436 kts | 12° |
| 2026-04-15 04:40 | -47.42045 | -67.87883 | 26660 ft | 433 kts | 12° |
| 2026-04-15 04:40 | -47.39142 | -67.86962 | 26166 ft | 430 kts | 12° |
| 2026-04-15 04:40 | -47.36223 | -67.86036 | 25664 ft | 427 kts | 12° |
| 2026-04-15 04:40 | -47.33330 | -67.85119 | 25163 ft | 423 kts | 12° |
| 2026-04-15 04:41 | -47.30464 | -67.84212 | 24663 ft | 420 kts | 12° |
| 2026-04-15 04:41 | -47.27616 | -67.83312 | 24162 ft | 417 kts | 12° |
| 2026-04-15 04:41 | -47.24793 | -67.82421 | 23662 ft | 414 kts | 12° |
| 2026-04-15 04:41 | -47.21988 | -67.81536 | 23162 ft | 410 kts | 12° |
| 2026-04-15 04:42 | -47.19207 | -67.80660 | 22661 ft | 407 kts | 12° |
| 2026-04-15 04:42 | -47.16445 | -67.79790 | 22161 ft | 404 kts | 12° |
| 2026-04-15 04:42 | -47.13700 | -67.78927 | 21660 ft | 401 kts | 12° |
| 2026-04-15 04:42 | -47.10973 | -67.78071 | 21158 ft | 398 kts | 12° |
| 2026-04-15 04:43 | -47.08277 | -67.77224 | 20658 ft | 395 kts | 12° |
| 2026-04-15 04:43 | -47.05596 | -67.76384 | 20157 ft | 392 kts | 12° |
| 2026-04-15 04:43 | -47.02937 | -67.75551 | 19657 ft | 389 kts | 12° |
| 2026-04-15 04:43 | -47.00298 | -67.74725 | 19156 ft | 386 kts | 12° |
| 2026-04-15 04:44 | -46.97681 | -67.73906 | 18655 ft | 383 kts | 12° |
| 2026-04-15 04:44 | -46.95079 | -67.73094 | 18155 ft | 380 kts | 12° |
| 2026-04-15 04:44 | -46.92501 | -67.72289 | 17743 ft | 378 kts | 12° |
| 2026-04-15 04:44 | -46.89962 | -67.71497 | 17369 ft | 376 kts | 12° |
| 2026-04-15 04:45 | -46.87406 | -67.70701 | 16992 ft | 374 kts | 12° |
| 2026-04-15 04:45 | -46.84870 | -67.69911 | 16617 ft | 372 kts | 12° |
| 2026-04-15 04:45 | -46.82351 | -67.69128 | 16300 ft | 369 kts | 12° |
| 2026-04-15 04:45 | -46.79827 | -67.68343 | 16045 ft | 368 kts | 12° |
| 2026-04-15 04:46 | -46.77319 | -67.67564 | 15794 ft | 367 kts | 12° |
| 2026-04-15 04:46 | -46.72367 | -67.66027 | 15296 ft | 365 kts | 12° |
| 2026-04-15 04:46 | -46.69885 | -67.65257 | 15045 ft | 363 kts | 12° |
| 2026-04-15 04:47 | -46.67415 | -67.64483 | 14793 ft | 362 kts | 13° |
| 2026-04-15 04:47 | -46.65028 | -67.63355 | 14542 ft | 361 kts | 22° |
| 2026-04-15 04:47 | -46.62742 | -67.61864 | 14221 ft | 360 kts | 25° |
| 2026-04-15 04:47 | -46.60486 | -67.60283 | 13729 ft | 358 kts | 25° |
| 2026-04-15 04:48 | -46.58240 | -67.58752 | 13228 ft | 354 kts | 25° |
| 2026-04-15 04:48 | -46.56005 | -67.57296 | 12729 ft | 351 kts | 24° |
| 2026-04-15 04:48 | -46.53779 | -67.55881 | 12229 ft | 349 kts | 23° |
| 2026-04-15 04:48 | -46.51573 | -67.54486 | 11731 ft | 346 kts | 24° |
| 2026-04-15 04:49 | -46.49375 | -67.53091 | 11291 ft | 343 kts | 24° |
| 2026-04-15 04:49 | -46.47188 | -67.51699 | 11089 ft | 342 kts | 24° |
| 2026-04-15 04:49 | -46.45015 | -67.50315 | 11026 ft | 342 kts | 24° |
| 2026-04-15 04:49 | -46.42830 | -67.48924 | 11007 ft | 342 kts | 24° |
| 2026-04-15 04:50 | -46.40649 | -67.47538 | 11003 ft | 342 kts | 24° |
| 2026-04-15 04:50 | -46.38485 | -67.46164 | 10996 ft | 333 kts | 24° |
| 2026-04-15 04:50 | -46.36409 | -67.44848 | 10988 ft | 317 kts | 24° |
| 2026-04-15 04:50 | -46.34447 | -67.43604 | 10979 ft | 301 kts | 24° |
| 2026-04-15 04:51 | -46.32527 | -67.42388 | 10780 ft | 302 kts | 24° |
| 2026-04-15 04:51 | -46.30595 | -67.41166 | 10546 ft | 304 kts | 24° |
| 2026-04-15 04:51 | -46.28667 | -67.39946 | 10455 ft | 299 kts | 24° |
| 2026-04-15 04:51 | -46.26819 | -67.38779 | 10393 ft | 287 kts | 24° |
| 2026-04-15 04:52 | -46.25015 | -67.37640 | 10181 ft | 281 kts | 24° |
| 2026-04-15 04:52 | -46.23231 | -67.36514 | 9885 ft | 278 kts | 24° |
| 2026-04-15 04:52 | -46.21462 | -67.35399 | 9584 ft | 276 kts | 24° |
| 2026-04-15 04:52 | -46.19710 | -67.34295 | 9283 ft | 274 kts | 24° |
| 2026-04-15 04:53 | -46.17969 | -67.33199 | 8982 ft | 272 kts | 24° |
| 2026-04-15 04:53 | -46.16244 | -67.32114 | 8682 ft | 270 kts | 24° |
| 2026-04-15 04:53 | -46.14525 | -67.31033 | 8381 ft | 268 kts | 24° |
| 2026-04-15 04:53 | -46.12818 | -67.29960 | 8080 ft | 267 kts | 24° |
| 2026-04-15 04:54 | -46.11122 | -67.28896 | 7780 ft | 265 kts | 23° |
| 2026-04-15 04:54 | -46.09429 | -67.27845 | 7479 ft | 264 kts | 23° |
| 2026-04-15 04:54 | -46.07739 | -67.26825 | 7178 ft | 263 kts | 22° |
| 2026-04-15 04:54 | -46.06062 | -67.25784 | 6872 ft | 262 kts | 26° |
| 2026-04-15 04:55 | -46.04517 | -67.24471 | 6597 ft | 260 kts | 32° |
| 2026-04-15 04:55 | -46.03013 | -67.23055 | 6342 ft | 257 kts | 33° |
| 2026-04-15 04:55 | -46.01529 | -67.21641 | 6089 ft | 254 kts | 33° |
| 2026-04-15 04:55 | -46.00060 | -67.20241 | 5837 ft | 252 kts | 33° |
| 2026-04-15 04:56 | -45.98605 | -67.18855 | 5586 ft | 250 kts | 33° |
| 2026-04-15 04:56 | -45.97166 | -67.17485 | 5335 ft | 247 kts | 33° |
| 2026-04-15 04:56 | -45.95733 | -67.16123 | 5083 ft | 246 kts | 33° |
| 2026-04-15 04:56 | -45.94313 | -67.14774 | 4832 ft | 244 kts | 33° |
| 2026-04-15 04:57 | -45.92902 | -67.13436 | 4581 ft | 242 kts | 33° |
| 2026-04-15 04:57 | -45.91499 | -67.12107 | 4330 ft | 241 kts | 33° |
| 2026-04-15 04:57 | -45.90107 | -67.10788 | 4123 ft | 237 kts | 33° |
| 2026-04-15 04:57 | -45.88748 | -67.09503 | 4030 ft | 230 kts | 33° |
| 2026-04-15 04:58 | -45.87416 | -67.08245 | 4009 ft | 229 kts | 33° |
| 2026-04-15 04:58 | -45.86081 | -67.06984 | 4004 ft | 229 kts | 33° |
| 2026-04-15 04:58 | -45.84747 | -67.05725 | 3960 ft | 231 kts | 33° |
| 2026-04-15 04:58 | -45.83413 | -67.04469 | 3733 ft | 232 kts | 33° |
| 2026-04-15 04:59 | -45.81981 | -67.03462 | 3542 ft | 228 kts | 14° |
| 2026-04-15 04:59 | -45.80447 | -67.03238 | 3526 ft | 215 kts | 0° |
| 2026-04-15 04:59 | -45.78986 | -67.03364 | 3509 ft | 208 kts | 353° |
| 2026-04-15 04:59 | -45.77548 | -67.03628 | 3523 ft | 208 kts | 352° |
| 2026-04-15 05:00 | -45.76115 | -67.03930 | 3500 ft | 209 kts | 348° |
| 2026-04-15 05:00 | -45.74857 | -67.04918 | 3482 ft | 208 kts | 317° |
| 2026-04-15 05:00 | -45.73932 | -67.06503 | 3505 ft | 209 kts | 300° |
| 2026-04-15 05:00 | -45.73626 | -67.08506 | 3490 ft | 208 kts | 266° |
| 2026-04-15 05:01 | -45.73834 | -67.10558 | 3549 ft | 209 kts | 260° |
| 2026-04-15 05:01 | -45.74083 | -67.12614 | 3504 ft | 209 kts | 260° |
| 2026-04-15 05:01 | -45.74340 | -67.14658 | 3497 ft | 208 kts | 259° |
| 2026-04-15 05:01 | -45.74572 | -67.16459 | 3488 ft | 199 kts | 259° |
| 2026-04-15 05:02 | -45.74811 | -67.18300 | 3477 ft | 189 kts | 259° |
| 2026-04-15 05:02 | -45.75040 | -67.20061 | 3426 ft | 189 kts | 259° |
| 2026-04-15 05:02 | -45.75284 | -67.21918 | 3273 ft | 188 kts | 259° |
| 2026-04-15 05:02 | -45.75521 | -67.23721 | 3071 ft | 185 kts | 259° |
| 2026-04-15 05:03 | -45.75757 | -67.25516 | 2847 ft | 181 kts | 259° |
| 2026-04-15 05:03 | -45.75988 | -67.27274 | 2616 ft | 178 kts | 259° |
| 2026-04-15 05:03 | -45.76216 | -67.29010 | 2383 ft | 175 kts | 259° |
| 2026-04-15 05:03 | -45.76435 | -67.30674 | 2146 ft | 163 kts | 259° |
| 2026-04-15 05:04 | -45.76637 | -67.32207 | 1975 ft | 154 kts | 259° |
| 2026-04-15 05:04 | -45.76833 | -67.33698 | 1775 ft | 150 kts | 259° |
| 2026-04-15 05:04 | -45.77023 | -67.35143 | 1573 ft | 146 kts | 259° |
| 2026-04-15 05:04 | -45.77210 | -67.36560 | 1359 ft | 143 kts | 259° |
| 2026-04-15 05:05 | -45.77393 | -67.37951 | 1172 ft | 142 kts | 259° |
| 2026-04-15 05:05 | -45.77575 | -67.39339 | 985 ft | 141 kts | 259° |
| 2026-04-15 05:05 | -45.77757 | -67.40718 | 799 ft | 141 kts | 259° |
| 2026-04-15 05:05 | -45.77938 | -67.42098 | 612 ft | 141 kts | 259° |
| 2026-04-15 05:06 | -45.78119 | -67.43474 | 425 ft | 140 kts | 259° |
| 2026-04-15 05:06 | -45.78297 | -67.44828 | 244 ft | 140 kts | 259° |
| 2026-04-15 05:06 | -45.78463 | -67.46086 | 202 ft | 103 kts | 259° |
| 2026-04-15 05:06 | -45.78549 | -67.46745 | 201 ft | 36 kts | 259° |
| 2026-04-15 05:07 | -45.78571 | -67.46922 | 201 ft | 13 kts | 259° |
| 2026-04-15 05:07 | -45.78582 | -67.47001 | 201 ft | 3 kts | 259° |
| 2026-04-15 05:07 | -45.78587 | -67.47042 | 201 ft | 12 kts | 259° |
| 2026-04-15 05:07 | -45.78621 | -67.47180 | 201 ft | 12 kts | 213° |
| 2026-04-15 05:08 | -45.78672 | -67.47187 | 201 ft | 3 kts | 173° |
| 2026-04-15 05:08 | -45.78691 | -67.47183 | 201 ft | 9 kts | 171° |
| 2026-04-15 05:08 | -45.78815 | -67.47153 | 201 ft | 24 kts | 170° |
| 2026-04-15 05:08 | -45.78966 | -67.47115 | 201 ft | 18 kts | 175° |
| 2026-04-15 05:09 | -45.79053 | -67.47109 | 201 ft | 7 kts | 178° |
| 2026-04-15 05:09 | -45.79065 | -67.47108 | 201 ft | 0 kts | 178° |